Airfield :
LOGIN :

Register | Disclaimer

   EN    FR    IT 

 










Legend :    VFR   Marginal VFR   IFR   Intensive IFR   Very Intensive IFR
Visi :
Ceiling :
>= 8 km
>= 3000ft
5 to 8 km
1000 to 3000 ft
1500m to 5 km
500 to 1000 ft
800 to 1500m
200 to 500 ft
< 800m
< 200 ft
Symbols :   Thunderstorms  Fog  Heavy snow  Heavy precipitations  Wind > 20 kt
SIGMETs :     Misc.  Thunderstorms  Icing  Turbulence  Mountain Waves  Volcanic Ashes






- Airport Elevation : 348 ft
- IATA code : LDV


LFRJ - Landivisiau

CURRENT METAR :
  • 210100Z AUTO 26017KT 9999 FEW013 SCT054 07/03 Q0991

EXPIRED METARs :
  • 210030Z AUTO 26014KT 9999 FEW024/// BKN044/// BKN068/// ///TCU 07/03 Q0991
  • 210000Z AUTO 25016KT 9999 FEW033/// SCT040/// ///TCU 07/03 Q0990
  • 202330Z AUTO 26014KT 9999 FEW025/// ///TCU 06/03 Q0990
  • 202300Z AUTO 27016KT 9999 FEW013 BKN027 BKN037 06/04 Q0989
  • 202230Z AUTO 27012KT 9999 SCT023/// BKN029/// BKN035/// ///TCU 07/04 Q0988 TEMPO SHRA BECMG 29018G28KT

TAF AMD TAF LFRJ
Valid from the 20 at 21:00 until the 21 at 06:00 UTC


202121Z 2021/2106 29018G28KT 9999 BKN013
BECMG 2021/2023 BKN020
TEMPO 2022/2106 SHRA SCT020TCU



MET'MAP, your aeronautical weather chart ! - Copyright ORBIFLY December 2007 - Disclaimer

ORBIFLY MET'MAP TEAM :

Programming & Development : Alexandra Zaïnal
Concept & original design : Baudouin d'Aumeries
Assistance for programming : Marc-Olivier Méhu
Technical & hardware support : Manuel Goepfert

Contact : metmap@orbifly.com




SOURCES & CREDITS :

   NOAA